createdAt,value
2022-07-26T00:02:22.719Z,19.48
2022-07-26T00:04:49.273Z,19.39
2022-07-26T00:07:15.760Z,19.51
2022-07-26T00:09:47.794Z,19.36
2022-07-26T00:12:14.676Z,19.42
2022-07-26T00:14:41.139Z,19.40
2022-07-26T00:17:07.623Z,19.27
2022-07-26T00:19:34.083Z,19.27
2022-07-26T00:22:18.916Z,19.31
2022-07-26T00:24:45.400Z,19.26
2022-07-26T00:27:11.811Z,19.36
2022-07-26T00:29:38.233Z,19.29
2022-07-26T00:32:05.074Z,19.33
2022-07-26T00:34:31.694Z,19.25
2022-07-26T00:36:58.101Z,19.28
2022-07-26T00:39:24.581Z,19.34
2022-07-26T00:41:51.019Z,19.23
2022-07-26T00:44:17.583Z,19.02
2022-07-26T00:46:44.448Z,19.15
2022-07-26T00:49:11.875Z,19.12
2022-07-26T00:51:38.910Z,18.93
2022-07-26T00:54:05.938Z,19.01
2022-07-26T00:56:33.927Z,18.95
2022-07-26T00:59:00.882Z,19.02
2022-07-26T01:01:27.822Z,18.90
2022-07-26T01:03:54.834Z,19.12
2022-07-26T01:06:26.715Z,19.12
2022-07-26T01:08:53.774Z,18.98
2022-07-26T01:11:20.191Z,18.98
2022-07-26T01:13:50.263Z,18.71
2022-07-26T01:16:17.714Z,18.65
2022-07-26T01:18:44.685Z,18.73
2022-07-26T01:21:13.594Z,18.56
2022-07-26T01:23:41.740Z,18.64
2022-07-26T01:26:08.211Z,18.75
2022-07-26T01:28:38.959Z,18.52
2022-07-26T01:31:06.390Z,18.61
2022-07-26T01:33:34.341Z,18.49
2022-07-26T01:36:01.190Z,18.55
2022-07-26T01:38:27.623Z,18.59
2022-07-26T01:40:54.194Z,18.70
2022-07-26T01:43:20.609Z,18.54
2022-07-26T01:45:47.255Z,18.51
2022-07-26T01:48:13.697Z,18.42
2022-07-26T01:50:40.141Z,18.34
2022-07-26T01:53:06.662Z,18.17
2022-07-26T01:55:33.172Z,18.01
2022-07-26T01:58:00.506Z,17.95
2022-07-26T02:00:27.015Z,17.90
2022-07-26T02:02:53.467Z,17.92
2022-07-26T02:05:20.105Z,17.99
2022-07-26T02:07:46.510Z,18.07
2022-07-26T02:10:14.521Z,18.19
2022-07-26T02:12:41.462Z,18.17
2022-07-26T02:15:09.648Z,18.26
2022-07-26T02:17:36.101Z,18.36
2022-07-26T02:20:02.671Z,18.33
2022-07-26T02:22:29.136Z,18.13
2022-07-26T02:24:55.595Z,18.18
2022-07-26T02:27:22.109Z,18.13
2022-07-26T02:29:48.682Z,18.14
2022-07-26T02:32:15.101Z,18.25
2022-07-26T02:34:41.594Z,18.30
2022-07-26T02:37:08.262Z,18.32
2022-07-26T02:39:34.997Z,18.46
2022-07-26T02:42:03.142Z,18.40
2022-07-26T02:44:30.480Z,18.58
2022-07-26T02:46:57.013Z,18.60
2022-07-26T02:49:23.513Z,18.64
2022-07-26T02:51:50.068Z,18.60
2022-07-26T02:54:16.674Z,18.56
2022-07-26T02:56:43.069Z,18.51
2022-07-26T02:59:09.550Z,18.38
2022-07-26T03:01:36.110Z,18.48
2022-07-26T03:04:03.539Z,18.34
2022-07-26T03:06:29.977Z,18.25
2022-07-26T03:08:56.758Z,18.38
2022-07-26T03:11:23.267Z,18.34
2022-07-26T03:13:49.657Z,18.42
2022-07-26T03:16:18.911Z,18.54
2022-07-26T03:18:49.190Z,18.46
2022-07-26T03:21:15.595Z,18.57
2022-07-26T03:23:42.015Z,18.37
2022-07-26T03:26:08.855Z,18.46
2022-07-26T03:28:35.462Z,18.57
2022-07-26T03:31:02.493Z,18.49
2022-07-26T03:33:30.035Z,18.51
2022-07-26T03:35:56.507Z,18.40
2022-07-26T03:38:22.929Z,18.16
2022-07-26T03:40:49.474Z,18.06
2022-07-26T03:43:16.758Z,17.87
2022-07-26T03:45:45.728Z,17.81
2022-07-26T03:48:12.186Z,17.59
2022-07-26T03:50:39.364Z,17.64
2022-07-26T03:53:05.910Z,17.69
2022-07-26T03:55:50.744Z,17.74
2022-07-26T03:58:19.039Z,17.68
2022-07-26T04:00:46.180Z,17.68
2022-07-26T04:03:12.833Z,17.72
2022-07-26T04:05:39.271Z,17.71
2022-07-26T04:08:06.044Z,17.69
2022-07-26T04:10:32.458Z,17.57
2022-07-26T04:12:58.875Z,17.68
2022-07-26T04:15:25.295Z,17.72
2022-07-26T04:17:51.745Z,17.79
2022-07-26T04:20:18.186Z,17.80
2022-07-26T04:22:45.077Z,17.85
2022-07-26T04:25:11.583Z,17.75
2022-07-26T04:27:38.068Z,17.68
2022-07-26T04:30:08.540Z,17.63
2022-07-26T04:32:39.170Z,17.51
2022-07-26T04:35:05.983Z,17.14
2022-07-26T04:37:39.045Z,16.93
2022-07-26T04:40:06.200Z,16.85
2022-07-26T04:42:32.623Z,16.80
2022-07-26T04:45:02.018Z,16.77
2022-07-26T04:47:30.962Z,16.72
2022-07-26T04:49:57.541Z,16.73
2022-07-26T04:52:24.220Z,16.83
2022-07-26T04:54:50.658Z,16.81
2022-07-26T04:57:17.138Z,16.92
2022-07-26T04:59:43.563Z,16.92
2022-07-26T05:02:10.123Z,16.87
2022-07-26T05:07:18.501Z,16.83
2022-07-26T05:09:45.002Z,16.81
2022-07-26T05:12:11.455Z,16.71
2022-07-26T05:14:37.899Z,16.67
2022-07-26T05:17:05.014Z,16.67
2022-07-26T05:19:47.440Z,16.71
2022-07-26T05:22:18.656Z,16.74
2022-07-26T05:24:45.085Z,16.80
2022-07-26T05:27:11.514Z,16.96
2022-07-26T05:30:00.018Z,17.00
2022-07-26T05:32:28.091Z,16.83
2022-07-26T05:34:54.624Z,16.83
2022-07-26T05:37:21.090Z,16.84
2022-07-26T05:39:47.524Z,17.10
2022-07-26T05:46:30.459Z,16.98
2022-07-26T05:48:56.960Z,17.07
2022-07-26T05:51:23.524Z,17.14
2022-07-26T05:53:49.971Z,17.06
2022-07-26T05:56:16.416Z,17.25
2022-07-26T05:58:42.854Z,17.28
2022-07-26T06:01:09.339Z,17.20
2022-07-26T06:03:42.165Z,17.27
2022-07-26T06:06:08.844Z,17.40
2022-07-26T06:08:36.145Z,17.37
2022-07-26T06:11:05.787Z,17.48
2022-07-26T06:13:32.265Z,17.56
2022-07-26T06:15:58.722Z,17.51
2022-07-26T06:18:25.197Z,17.51
2022-07-26T06:20:51.642Z,17.41
2022-07-26T06:23:18.047Z,17.48
2022-07-26T06:26:00.275Z,17.65
2022-07-26T06:28:26.705Z,17.77
2022-07-26T06:30:53.674Z,17.82
2022-07-26T06:33:20.198Z,17.67
2022-07-26T06:35:46.828Z,17.76
2022-07-26T06:38:13.297Z,17.72
2022-07-26T06:40:39.810Z,17.85
2022-07-26T06:43:06.376Z,18.08
2022-07-26T06:49:41.360Z,17.71
2022-07-26T06:53:04.534Z,17.85
2022-07-26T06:55:31.040Z,18.14
2022-07-26T06:57:57.817Z,18.35
2022-07-26T07:00:24.424Z,18.48
2022-07-26T07:03:22.884Z,18.54
2022-07-26T07:05:50.158Z,18.55
2022-07-26T07:08:16.963Z,18.55
2022-07-26T07:10:48.869Z,18.61
2022-07-26T07:13:17.607Z,18.56
2022-07-26T07:15:44.161Z,18.76
2022-07-26T07:18:10.764Z,18.84
2022-07-26T07:20:38.365Z,18.77
2022-07-26T07:23:04.792Z,18.45
2022-07-26T07:25:31.311Z,18.26
2022-07-26T07:27:58.244Z,18.36
2022-07-26T07:30:24.817Z,18.53
2022-07-26T07:32:55.537Z,18.39
2022-07-26T07:35:23.134Z,18.71
2022-07-26T07:37:52.722Z,18.80
2022-07-26T07:40:36.185Z,19.01
2022-07-26T07:43:02.583Z,19.16
2022-07-26T07:46:08.277Z,19.09
2022-07-26T07:48:53.764Z,19.22
2022-07-26T07:51:28.018Z,19.37
2022-07-26T07:53:57.370Z,18.85
2022-07-26T07:56:42.864Z,19.28
2022-07-26T07:59:10.471Z,19.71
2022-07-26T08:01:40.589Z,19.76
2022-07-26T08:04:29.735Z,19.35
2022-07-26T08:06:56.189Z,19.17
2022-07-26T08:09:23.938Z,19.38
2022-07-26T08:11:50.904Z,19.60
2022-07-26T08:14:18.416Z,19.95
2022-07-26T08:16:45.055Z,19.88
2022-07-26T08:19:11.927Z,19.85
2022-07-26T08:21:38.613Z,20.06
2022-07-26T08:24:34.424Z,20.25
2022-07-26T08:27:00.930Z,20.41
2022-07-26T08:29:28.118Z,20.79
2022-07-26T08:31:54.735Z,20.90
2022-07-26T08:34:30.944Z,21.07
2022-07-26T08:37:15.914Z,20.43
2022-07-26T08:39:43.252Z,20.35
2022-07-26T08:42:16.584Z,20.21
2022-07-26T08:44:50.978Z,20.65
2022-07-26T08:47:35.405Z,20.37
2022-07-26T08:50:04.801Z,20.76
2022-07-26T08:52:44.603Z,20.86
2022-07-26T08:55:15.063Z,20.68
2022-07-26T08:57:41.771Z,20.72
2022-07-26T09:00:18.027Z,21.38
2022-07-26T09:02:44.842Z,21.96
2022-07-26T09:05:11.719Z,21.98
2022-07-26T09:07:40.119Z,21.78
2022-07-26T09:10:39.042Z,22.07
2022-07-26T09:20:51.849Z,21.59
2022-07-26T09:23:21.646Z,22.05
2022-07-26T09:25:48.281Z,22.20
2022-07-26T09:32:17.175Z,22.23
2022-07-26T09:34:58.326Z,22.69
2022-07-26T09:41:30.613Z,21.88
2022-07-26T09:44:03.959Z,21.47
2022-07-26T09:46:40.036Z,21.43
2022-07-26T09:49:18.116Z,21.26
2022-07-26T09:51:47.093Z,21.82
2022-07-26T09:54:38.095Z,22.82
2022-07-26T09:57:04.634Z,22.77
2022-07-26T09:59:31.120Z,22.60
2022-07-26T10:02:00.659Z,22.43
2022-07-26T10:08:07.957Z,21.99
2022-07-26T10:10:46.906Z,21.61
2022-07-26T10:13:13.865Z,21.33
2022-07-26T10:15:50.761Z,20.59
2022-07-26T10:18:39.323Z,20.34
2022-07-26T10:21:19.654Z,20.25
2022-07-26T10:24:14.099Z,20.33
2022-07-26T10:26:45.430Z,20.02
2022-07-26T10:29:26.093Z,19.62
2022-07-26T10:31:55.794Z,19.68
2022-07-26T10:34:39.411Z,19.70
2022-07-26T10:37:08.474Z,19.40
2022-07-26T10:39:36.400Z,19.26
2022-07-26T10:42:08.596Z,19.41
2022-07-26T10:44:39.568Z,19.35
2022-07-26T10:47:09.013Z,19.24
2022-07-26T10:50:16.118Z,19.15
2022-07-26T10:52:58.801Z,19.25
2022-07-26T10:56:03.312Z,18.75
2022-07-26T10:58:43.157Z,18.68
2022-07-26T11:01:09.708Z,18.83
2022-07-26T11:03:41.273Z,18.90
2022-07-26T11:06:15.852Z,19.16
2022-07-26T11:08:48.167Z,19.43
2022-07-26T11:11:27.897Z,19.57
2022-07-26T11:14:15.344Z,19.44
2022-07-26T11:16:52.151Z,19.54
2022-07-26T11:19:24.635Z,19.86
2022-07-26T11:21:58.885Z,19.83
2022-07-26T11:24:26.751Z,19.82
2022-07-26T11:27:04.197Z,19.81
2022-07-26T11:29:38.471Z,20.12
2022-07-26T11:32:17.636Z,20.13
2022-07-26T11:35:05.383Z,20.03
2022-07-26T11:37:31.865Z,19.88
2022-07-26T11:39:58.318Z,20.21
2022-07-26T11:42:24.848Z,20.42
2022-07-26T11:44:53.526Z,21.12
2022-07-26T11:47:30.291Z,21.54
2022-07-26T11:50:23.079Z,21.24
2022-07-26T11:52:50.183Z,20.20
2022-07-26T11:55:31.193Z,19.92
2022-07-26T11:58:07.067Z,19.73
2022-07-26T12:00:33.582Z,19.93
2022-07-26T12:03:00.034Z,20.37
2022-07-26T12:05:27.591Z,21.13
2022-07-26T12:07:59.570Z,20.61
2022-07-26T12:10:37.292Z,20.60
2022-07-26T12:13:24.390Z,20.52
2022-07-26T12:15:52.285Z,20.12
2022-07-26T12:18:29.927Z,19.82
2022-07-26T12:21:15.518Z,20.59
2022-07-26T12:23:48.166Z,21.20
2022-07-26T12:26:27.134Z,21.01
2022-07-26T12:28:54.975Z,21.30
2022-07-26T12:31:23.314Z,22.04
2022-07-26T12:33:50.197Z,22.09
2022-07-26T12:36:27.906Z,22.71
2022-07-26T12:38:56.667Z,22.53
2022-07-26T12:41:36.222Z,23.48
2022-07-26T12:44:03.582Z,24.48
2022-07-26T12:46:32.832Z,25.52
2022-07-26T12:49:00.719Z,24.51
2022-07-26T12:51:27.675Z,23.47
2022-07-26T12:53:54.140Z,23.32
2022-07-26T12:56:23.519Z,23.03
2022-07-26T12:58:49.972Z,22.31
2022-07-26T13:01:16.659Z,23.03
2022-07-26T13:03:43.396Z,23.72
2022-07-26T13:06:10.056Z,22.93
2022-07-26T13:08:36.541Z,22.51
2022-07-26T13:11:03.234Z,22.65
2022-07-26T13:13:29.870Z,23.34
2022-07-26T13:15:56.429Z,22.52
2022-07-26T13:18:22.929Z,22.89
2022-07-26T13:20:49.356Z,22.82
2022-07-26T13:23:18.410Z,22.22
2022-07-26T13:25:48.776Z,22.76
2022-07-26T13:28:16.894Z,22.71
2022-07-26T13:30:43.714Z,22.17
2022-07-26T13:33:10.374Z,21.71
2022-07-26T13:35:41.052Z,21.50
2022-07-26T13:38:08.025Z,21.57
2022-07-26T13:40:34.486Z,21.75
2022-07-26T13:43:00.971Z,21.50
2022-07-26T13:45:29.298Z,21.28
2022-07-26T13:47:57.257Z,21.84
2022-07-26T13:50:25.530Z,22.41
2022-07-26T13:53:06.199Z,22.97
2022-07-26T13:55:32.634Z,23.45
2022-07-26T13:57:59.085Z,23.39
2022-07-26T14:00:27.346Z,23.89
2022-07-26T14:02:55.024Z,24.42
2022-07-26T14:05:21.632Z,24.87
2022-07-26T14:07:48.074Z,24.92
2022-07-26T14:10:14.514Z,24.87
2022-07-26T14:12:41.096Z,24.94
2022-07-26T14:15:16.632Z,24.15
2022-07-26T14:17:47.526Z,24.53
2022-07-26T14:20:14.891Z,24.35
2022-07-26T14:22:41.445Z,23.42
2022-07-26T14:25:08.339Z,22.88
2022-07-26T14:27:34.843Z,23.50
2022-07-26T14:30:01.302Z,24.26
2022-07-26T14:32:27.761Z,23.46
2022-07-26T14:34:54.248Z,22.64
2022-07-26T14:37:42.483Z,22.01
2022-07-26T14:40:07.843Z,22.07
2022-07-26T14:42:34.314Z,22.14
2022-07-26T14:45:00.755Z,21.74
2022-07-26T14:47:27.224Z,21.91
2022-07-26T14:49:53.865Z,21.39
2022-07-26T14:52:20.397Z,20.99
2022-07-26T14:54:46.898Z,20.73
2022-07-26T14:57:13.332Z,20.69
2022-07-26T14:59:39.756Z,20.75
2022-07-26T15:02:06.380Z,20.45
2022-07-26T15:04:32.947Z,20.68
2022-07-26T15:07:00.314Z,20.87
2022-07-26T15:09:26.778Z,21.11
2022-07-26T15:11:53.406Z,21.32
2022-07-26T15:14:19.845Z,21.43
2022-07-26T15:16:46.673Z,22.06
2022-07-26T15:19:13.348Z,22.06
2022-07-26T15:21:39.810Z,21.61
2022-07-26T15:24:06.428Z,21.48
2022-07-26T15:26:32.951Z,21.42
2022-07-26T15:28:59.436Z,21.40
2022-07-26T15:31:36.615Z,21.39
2022-07-26T15:34:04.153Z,21.43
2022-07-26T15:36:30.579Z,21.18
2022-07-26T15:39:01.993Z,20.96
2022-07-26T15:41:41.123Z,21.14
2022-07-26T15:44:10.066Z,20.99
2022-07-26T15:46:39.013Z,20.98
2022-07-26T15:49:06.481Z,20.97
2022-07-26T15:51:33.016Z,20.95
2022-07-26T15:53:59.708Z,20.86
2022-07-26T15:56:26.195Z,20.90
2022-07-26T15:58:52.676Z,21.20
2022-07-26T16:01:19.301Z,21.05
2022-07-26T16:03:47.475Z,20.87
2022-07-26T16:06:13.901Z,21.01
2022-07-26T16:08:59.013Z,20.58
2022-07-26T16:11:30.494Z,20.25
2022-07-26T16:14:01.710Z,20.06
2022-07-26T16:16:30.117Z,19.89
2022-07-26T16:18:56.837Z,19.76
2022-07-26T16:21:23.466Z,19.64
2022-07-26T16:23:50.860Z,19.37
2022-07-26T16:26:17.744Z,19.23
2022-07-26T16:28:44.323Z,19.03
2022-07-26T16:31:10.789Z,18.90
2022-07-26T16:33:37.971Z,18.92
2022-07-26T16:36:12.772Z,18.79
2022-07-26T16:38:39.383Z,18.72
2022-07-26T16:41:06.047Z,18.90
2022-07-26T16:43:32.582Z,19.05
2022-07-26T16:45:59.122Z,19.05
2022-07-26T16:48:25.775Z,19.19
2022-07-26T16:50:52.243Z,19.38
2022-07-26T16:53:18.836Z,19.39
2022-07-26T16:55:47.019Z,19.39
2022-07-26T16:58:13.456Z,19.42
2022-07-26T17:00:40.138Z,19.43
2022-07-26T17:03:06.795Z,19.41
2022-07-26T17:05:33.234Z,19.36
2022-07-26T17:07:59.733Z,19.46
2022-07-26T17:10:26.409Z,19.21
2022-07-26T17:12:53.802Z,19.19
2022-07-26T17:15:20.254Z,19.02
2022-07-26T17:17:48.864Z,18.96
2022-07-26T17:20:16.217Z,19.02
2022-07-26T17:22:42.846Z,18.98
2022-07-26T17:25:09.687Z,19.18
2022-07-26T17:27:36.369Z,19.08
2022-07-26T17:30:07.024Z,19.00
2022-07-26T17:32:34.507Z,19.02
2022-07-26T17:35:01.029Z,18.82
2022-07-26T17:37:27.459Z,18.98
2022-07-26T17:39:55.273Z,19.06
2022-07-26T17:42:24.100Z,19.18
2022-07-26T17:44:51.262Z,19.16
2022-07-26T17:47:29.101Z,19.31
2022-07-26T17:52:48.770Z,19.25
2022-07-26T17:55:15.686Z,19.17
2022-07-26T17:57:42.399Z,18.95
2022-07-26T18:00:09.514Z,18.93
2022-07-26T18:02:36.164Z,18.88
2022-07-26T18:05:03.238Z,18.89
2022-07-26T18:07:29.898Z,18.68
2022-07-26T18:09:56.323Z,18.71
2022-07-26T18:12:22.970Z,18.70
2022-07-26T18:14:49.604Z,18.78
2022-07-26T18:21:03.319Z,18.65
2022-07-26T18:23:29.773Z,18.82
2022-07-26T18:29:43.302Z,18.88
2022-07-26T18:32:09.984Z,18.83
2022-07-26T18:34:36.543Z,18.82
2022-07-26T18:37:03.075Z,18.91
2022-07-26T18:39:32.647Z,19.04
2022-07-26T18:41:59.937Z,18.96
2022-07-26T18:44:38.752Z,18.88
2022-07-26T18:47:05.971Z,18.83
2022-07-26T18:49:33.230Z,18.82
2022-07-26T18:52:08.198Z,18.80
2022-07-26T18:54:35.854Z,18.65
2022-07-26T18:57:02.358Z,18.68
2022-07-26T18:59:29.673Z,18.73
2022-07-26T19:01:57.686Z,18.63
2022-07-26T19:04:25.105Z,18.46
2022-07-26T19:06:52.022Z,18.57
2022-07-26T19:09:18.569Z,18.49
2022-07-26T19:11:47.919Z,18.40
2022-07-26T19:14:29.743Z,18.48
2022-07-26T19:16:56.240Z,18.36
2022-07-26T19:19:22.790Z,18.35
2022-07-26T19:21:49.369Z,18.31
2022-07-26T19:24:15.898Z,18.44
2022-07-26T19:26:42.327Z,18.40
2022-07-26T19:29:09.198Z,18.44
2022-07-26T19:31:36.819Z,18.46
2022-07-26T19:34:04.088Z,18.37
2022-07-26T19:36:30.546Z,18.39
2022-07-26T19:38:57.634Z,18.40
2022-07-26T19:41:25.203Z,18.30
2022-07-26T19:43:51.695Z,18.41
2022-07-26T19:46:18.369Z,18.37
2022-07-26T19:48:45.017Z,18.37
2022-07-26T19:51:11.602Z,18.39
2022-07-26T19:53:38.021Z,18.39
2022-07-26T19:56:04.962Z,18.35
2022-07-26T19:58:31.525Z,18.36
2022-07-26T20:00:58.146Z,18.42
2022-07-26T20:03:24.619Z,18.41
2022-07-26T20:05:53.339Z,18.37
2022-07-26T20:08:19.763Z,18.23
2022-07-26T20:10:46.215Z,18.17
2022-07-26T20:13:13.356Z,18.18
2022-07-26T20:15:40.012Z,18.07
2022-07-26T20:18:06.477Z,18.07
2022-07-26T20:20:32.999Z,18.08
2022-07-26T20:26:46.415Z,18.23
2022-07-26T20:29:13.224Z,18.08
2022-07-26T20:31:39.958Z,18.13
2022-07-26T20:34:06.413Z,18.22
2022-07-26T20:36:32.873Z,18.07
2022-07-26T20:39:00.375Z,18.06
2022-07-26T20:41:26.914Z,18.01
2022-07-26T20:44:00.529Z,17.96
2022-07-26T20:46:27.037Z,17.93
2022-07-26T20:48:54.009Z,17.96
2022-07-26T20:55:01.215Z,17.85
2022-07-26T20:57:27.845Z,17.88
2022-07-26T20:59:54.290Z,17.79
2022-07-26T21:02:21.181Z,17.80
2022-07-26T21:04:47.689Z,17.89
2022-07-26T21:07:14.117Z,17.78
2022-07-26T21:09:40.545Z,17.77
2022-07-26T21:12:07.481Z,17.68
2022-07-26T21:14:34.103Z,17.61
2022-07-26T21:20:47.707Z,17.61
2022-07-26T21:23:17.667Z,17.53
2022-07-26T21:25:44.774Z,17.42
2022-07-26T21:28:11.205Z,17.56
2022-07-26T21:30:37.661Z,17.49
2022-07-26T21:33:04.157Z,17.40
2022-07-26T21:35:32.036Z,17.43
2022-07-26T21:37:58.499Z,17.39
2022-07-26T21:40:25.662Z,17.27
2022-07-26T21:42:52.125Z,17.15
2022-07-26T21:45:19.075Z,17.33
2022-07-26T21:47:45.539Z,17.18
2022-07-26T21:50:12.261Z,17.17
2022-07-26T21:52:38.811Z,17.15
2022-07-26T21:55:05.835Z,17.15
2022-07-26T21:57:32.320Z,17.10
2022-07-26T21:59:59.506Z,17.16
2022-07-26T22:02:26.267Z,17.25
2022-07-26T22:04:52.755Z,17.32
2022-07-26T22:07:19.210Z,17.16
2022-07-26T22:09:45.698Z,17.04
2022-07-26T22:12:12.146Z,16.95
2022-07-26T22:14:38.636Z,17.03
2022-07-26T22:17:05.096Z,16.83
2022-07-26T22:19:31.528Z,16.82
2022-07-26T22:21:57.968Z,16.78
2022-07-26T22:24:24.471Z,16.90
2022-07-26T22:26:50.913Z,16.91
2022-07-26T22:29:17.377Z,16.75
2022-07-26T22:31:43.922Z,16.74
2022-07-26T22:38:01.978Z,16.63
2022-07-26T22:40:28.526Z,16.49
2022-07-26T22:42:58.446Z,16.58
2022-07-26T22:45:26.382Z,16.54
2022-07-26T22:47:56.469Z,16.61
2022-07-26T22:50:23.583Z,16.39
2022-07-26T22:52:51.877Z,16.38
2022-07-26T22:55:18.375Z,16.52
2022-07-26T22:57:45.162Z,16.50
2022-07-26T23:00:13.366Z,16.52
2022-07-26T23:02:39.953Z,16.61
2022-07-26T23:05:07.095Z,16.54
2022-07-26T23:07:35.173Z,16.39
2022-07-26T23:10:01.776Z,16.33
2022-07-26T23:12:28.627Z,16.30
2022-07-26T23:14:55.190Z,16.38
2022-07-26T23:17:21.636Z,16.38
2022-07-26T23:19:48.185Z,16.27
2022-07-26T23:22:14.761Z,16.13
2022-07-26T23:24:41.307Z,16.27
2022-07-26T23:27:10.339Z,16.26
2022-07-26T23:29:37.248Z,16.30
2022-07-26T23:32:03.827Z,16.29
2022-07-26T23:34:30.274Z,16.32
2022-07-26T23:36:56.759Z,16.11
2022-07-26T23:39:23.226Z,16.09
2022-07-26T23:41:49.796Z,16.05
2022-07-26T23:44:16.272Z,16.06
2022-07-26T23:46:42.795Z,16.10
2022-07-26T23:49:10.214Z,16.08
2022-07-26T23:51:38.780Z,15.93
2022-07-26T23:54:05.824Z,15.76
2022-07-26T23:56:32.340Z,15.82
2022-07-26T23:58:58.771Z,15.59
